createdAt,value
2023-04-16T00:00:56.000Z,0
2023-04-16T00:01:57.000Z,0
2023-04-16T00:02:57.000Z,0
2023-04-16T00:03:58.000Z,0
2023-04-16T00:04:59.000Z,0
2023-04-16T00:06:00.000Z,0
2023-04-16T00:07:01.000Z,0
2023-04-16T00:08:01.000Z,0
2023-04-16T00:09:02.000Z,0
2023-04-16T00:10:03.000Z,0
2023-04-16T00:11:04.000Z,0
2023-04-16T00:12:05.000Z,0
2023-04-16T00:13:06.000Z,0
2023-04-16T00:14:07.000Z,0
2023-04-16T00:15:07.000Z,0
2023-04-16T00:16:08.000Z,0
2023-04-16T00:17:09.000Z,0
2023-04-16T00:18:10.000Z,0
2023-04-16T00:19:11.000Z,0
2023-04-16T00:20:11.000Z,0
2023-04-16T00:21:12.000Z,0
2023-04-16T00:22:13.000Z,0
2023-04-16T00:23:14.000Z,0
2023-04-16T00:24:14.000Z,0
2023-04-16T00:25:15.000Z,0
2023-04-16T00:26:16.000Z,0
2023-04-16T00:27:17.000Z,0
2023-04-16T00:28:18.000Z,0
2023-04-16T00:29:18.000Z,0
2023-04-16T00:30:19.000Z,0
2023-04-16T00:31:20.000Z,0
2023-04-16T00:32:21.000Z,0
2023-04-16T00:33:22.000Z,0
2023-04-16T00:34:23.000Z,0
2023-04-16T00:35:23.000Z,0
2023-04-16T00:36:24.000Z,0
2023-04-16T00:37:25.000Z,0
2023-04-16T00:38:26.000Z,0
2023-04-16T00:39:27.000Z,0
2023-04-16T00:40:28.000Z,0
2023-04-16T00:41:29.000Z,0
2023-04-16T00:42:29.000Z,0
2023-04-16T00:43:30.000Z,0
2023-04-16T00:44:31.000Z,0
2023-04-16T00:45:32.000Z,0
2023-04-16T00:46:33.000Z,0
2023-04-16T00:47:33.000Z,0
2023-04-16T00:48:34.000Z,0
2023-04-16T00:49:35.000Z,0
2023-04-16T00:50:36.000Z,0
2023-04-16T00:51:42.000Z,0
2023-04-16T00:52:43.000Z,0
2023-04-16T00:53:44.000Z,0
2023-04-16T00:54:45.000Z,0
2023-04-16T00:55:45.000Z,0
2023-04-16T00:56:46.000Z,0
2023-04-16T00:57:47.000Z,0
2023-04-16T00:58:48.000Z,0
2023-04-16T00:59:49.000Z,0
2023-04-16T01:00:50.000Z,0
2023-04-16T01:01:50.000Z,0
2023-04-16T01:02:51.000Z,0
2023-04-16T01:03:52.000Z,0
2023-04-16T01:04:53.000Z,0
2023-04-16T01:05:54.000Z,0
2023-04-16T01:06:55.000Z,0
2023-04-16T01:07:55.000Z,0
2023-04-16T01:08:56.000Z,0
2023-04-16T01:09:57.000Z,0
2023-04-16T01:10:58.000Z,0
2023-04-16T01:11:59.000Z,0
2023-04-16T01:13:00.000Z,0
2023-04-16T01:14:01.000Z,0
2023-04-16T01:15:01.000Z,0
2023-04-16T01:16:02.000Z,0
2023-04-16T01:17:03.000Z,0
2023-04-16T01:18:04.000Z,0
2023-04-16T01:19:05.000Z,0
2023-04-16T01:20:06.000Z,0
2023-04-16T01:21:07.000Z,0
2023-04-16T01:22:07.000Z,0
2023-04-16T01:23:08.000Z,0
2023-04-16T01:24:09.000Z,0
2023-04-16T01:25:10.000Z,0
2023-04-16T01:26:11.000Z,0
2023-04-16T01:27:12.000Z,0
2023-04-16T01:28:13.000Z,0
2023-04-16T01:29:13.000Z,0
2023-04-16T01:30:14.000Z,0
2023-04-16T01:31:15.000Z,0
2023-04-16T01:32:16.000Z,0
2023-04-16T01:33:17.000Z,0
2023-04-16T01:34:17.000Z,0
2023-04-16T01:35:18.000Z,0
2023-04-16T01:36:19.000Z,0
2023-04-16T01:37:20.000Z,0
2023-04-16T01:38:21.000Z,0
2023-04-16T01:39:22.000Z,0
2023-04-16T01:40:23.000Z,0
2023-04-16T01:41:23.000Z,0
2023-04-16T01:42:24.000Z,0
2023-04-16T01:43:25.000Z,0
2023-04-16T01:44:26.000Z,0
2023-04-16T01:45:27.000Z,0
2023-04-16T01:46:27.000Z,0
2023-04-16T01:47:28.000Z,0
2023-04-16T01:48:29.000Z,0
2023-04-16T01:49:30.000Z,0
2023-04-16T01:50:31.000Z,0
2023-04-16T01:51:32.000Z,0
2023-04-16T01:52:32.000Z,0
2023-04-16T01:53:33.000Z,0
2023-04-16T01:54:34.000Z,0
2023-04-16T01:55:35.000Z,0
2023-04-16T01:56:36.000Z,0
2023-04-16T01:57:37.000Z,0
2023-04-16T01:58:38.000Z,0
2023-04-16T01:59:38.000Z,0
2023-04-16T02:00:39.000Z,0
2023-04-16T02:01:40.000Z,0
2023-04-16T02:02:41.000Z,0
2023-04-16T02:03:42.000Z,0
2023-04-16T02:04:43.000Z,0
2023-04-16T02:05:43.000Z,0
2023-04-16T02:06:44.000Z,0
2023-04-16T02:07:45.000Z,0
2023-04-16T02:08:46.000Z,0
2023-04-16T02:09:47.000Z,0
2023-04-16T02:10:48.000Z,0
2023-04-16T02:11:48.000Z,0
2023-04-16T02:12:49.000Z,0
2023-04-16T02:13:50.000Z,0
2023-04-16T02:14:51.000Z,0
2023-04-16T02:15:52.000Z,0
2023-04-16T02:16:58.000Z,0
2023-04-16T02:17:58.000Z,0
2023-04-16T02:18:59.000Z,0
2023-04-16T02:20:00.000Z,0
2023-04-16T02:21:01.000Z,0
2023-04-16T02:22:02.000Z,0
2023-04-16T02:23:03.000Z,0
2023-04-16T02:24:04.000Z,0
2023-04-16T02:25:04.000Z,0
2023-04-16T02:26:05.000Z,0
2023-04-16T02:27:06.000Z,0
2023-04-16T02:28:07.000Z,0
2023-04-16T02:29:08.000Z,0
2023-04-16T02:30:09.000Z,0
2023-04-16T02:31:09.000Z,0
2023-04-16T02:32:10.000Z,0
2023-04-16T02:33:11.000Z,0
2023-04-16T02:34:12.000Z,0
2023-04-16T02:35:13.000Z,0
2023-04-16T02:36:13.000Z,0
2023-04-16T02:37:14.000Z,0
2023-04-16T02:38:15.000Z,0
2023-04-16T02:39:16.000Z,0
2023-04-16T02:40:17.000Z,0
2023-04-16T02:41:17.000Z,0
2023-04-16T02:42:18.000Z,0
2023-04-16T02:43:19.000Z,0
2023-04-16T02:44:20.000Z,0
2023-04-16T02:45:21.000Z,0
2023-04-16T02:46:21.000Z,0
2023-04-16T02:47:22.000Z,0
2023-04-16T02:48:23.000Z,0
2023-04-16T02:49:24.000Z,0
2023-04-16T02:50:25.000Z,0
2023-04-16T02:51:26.000Z,0
2023-04-16T02:52:26.000Z,0
2023-04-16T02:53:27.000Z,0
2023-04-16T02:54:28.000Z,0
2023-04-16T02:55:29.000Z,0
2023-04-16T02:56:30.000Z,0
2023-04-16T02:57:31.000Z,0
2023-04-16T02:58:32.000Z,0
2023-04-16T02:59:33.000Z,0
2023-04-16T03:00:34.000Z,0
2023-04-16T03:01:35.000Z,0
2023-04-16T03:02:35.000Z,0
2023-04-16T03:03:36.000Z,0
2023-04-16T03:04:37.000Z,0
2023-04-16T03:05:38.000Z,0
2023-04-16T03:06:39.000Z,0
2023-04-16T03:07:40.000Z,0
2023-04-16T03:08:40.000Z,0
2023-04-16T03:09:41.000Z,0
2023-04-16T03:10:42.000Z,0
2023-04-16T03:11:43.000Z,0
2023-04-16T03:12:44.000Z,0
2023-04-16T03:13:45.000Z,0
2023-04-16T03:14:46.000Z,0
2023-04-16T03:15:47.000Z,0
2023-04-16T03:16:47.000Z,0
2023-04-16T03:17:48.000Z,0
2023-04-16T03:18:49.000Z,0
2023-04-16T03:19:50.000Z,0
2023-04-16T03:20:51.000Z,0
2023-04-16T03:21:52.000Z,0
2023-04-16T03:22:53.000Z,0
2023-04-16T03:23:53.000Z,0
2023-04-16T03:24:54.000Z,0
2023-04-16T03:25:55.000Z,0
2023-04-16T03:26:56.000Z,0
2023-04-16T03:27:57.000Z,0
2023-04-16T03:28:58.000Z,0
2023-04-16T03:29:59.000Z,0
2023-04-16T03:31:00.000Z,0
2023-04-16T03:32:01.000Z,0
2023-04-16T03:33:01.000Z,0
2023-04-16T03:34:02.000Z,0
2023-04-16T03:35:03.000Z,0
2023-04-16T03:36:04.000Z,0
2023-04-16T03:37:10.000Z,0
2023-04-16T03:38:11.000Z,0
2023-04-16T03:39:11.000Z,1
2023-04-16T03:40:12.000Z,1
2023-04-16T03:41:13.000Z,0
2023-04-16T03:42:14.000Z,1
2023-04-16T03:43:15.000Z,1
2023-04-16T03:44:16.000Z,1
2023-04-16T03:45:17.000Z,2
2023-04-16T03:46:18.000Z,1
2023-04-16T03:47:19.000Z,2
2023-04-16T03:48:19.000Z,3
2023-04-16T03:49:20.000Z,3
2023-04-16T03:50:21.000Z,4
2023-04-16T03:51:22.000Z,4
2023-04-16T03:52:23.000Z,4
2023-04-16T03:53:24.000Z,6
2023-04-16T03:54:25.000Z,7
2023-04-16T03:55:26.000Z,9
2023-04-16T03:56:26.000Z,10
2023-04-16T03:57:27.000Z,11
2023-04-16T03:58:28.000Z,14
2023-04-16T03:59:29.000Z,16
2023-04-16T04:00:30.000Z,19
2023-04-16T04:01:31.000Z,22
2023-04-16T04:02:32.000Z,25
2023-04-16T04:03:33.000Z,29
2023-04-16T04:04:33.000Z,33
2023-04-16T04:05:34.000Z,38
2023-04-16T04:06:35.000Z,43
2023-04-16T04:07:36.000Z,47
2023-04-16T04:08:37.000Z,53
2023-04-16T04:09:38.000Z,59
2023-04-16T04:10:39.000Z,66
2023-04-16T04:11:40.000Z,74
2023-04-16T04:12:40.000Z,84
2023-04-16T04:13:41.000Z,96
2023-04-16T04:14:42.000Z,109
2023-04-16T04:15:43.000Z,123
2023-04-16T04:16:44.000Z,137
2023-04-16T04:17:45.000Z,150
2023-04-16T04:18:46.000Z,164
2023-04-16T04:19:47.000Z,179
2023-04-16T04:20:48.000Z,195
2023-04-16T04:21:48.000Z,212
2023-04-16T04:22:49.000Z,230
2023-04-16T04:23:50.000Z,250
2023-04-16T04:24:51.000Z,271
2023-04-16T04:25:52.000Z,292
2023-04-16T04:26:53.000Z,312
2023-04-16T04:27:54.000Z,335
2023-04-16T04:28:54.000Z,360
2023-04-16T04:29:56.000Z,386
2023-04-16T04:30:56.000Z,410
2023-04-16T04:31:57.000Z,432
2023-04-16T04:32:58.000Z,458
2023-04-16T04:33:59.000Z,492
2023-04-16T04:35:00.000Z,537
2023-04-16T04:36:01.000Z,581
2023-04-16T04:37:02.000Z,623
2023-04-16T04:38:02.000Z,657
2023-04-16T04:39:03.000Z,690
2023-04-16T04:40:04.000Z,723
2023-04-16T04:41:05.000Z,749
2023-04-16T04:42:06.000Z,764
2023-04-16T04:43:07.000Z,776
2023-04-16T04:44:08.000Z,788
2023-04-16T04:45:09.000Z,799
2023-04-16T04:46:10.000Z,812
2023-04-16T04:47:11.000Z,827
2023-04-16T04:48:12.000Z,848
2023-04-16T04:49:13.000Z,873
2023-04-16T04:50:14.000Z,902
2023-04-16T04:51:15.000Z,937
2023-04-16T04:52:16.000Z,975
2023-04-16T04:53:17.000Z,1019
2023-04-16T04:54:18.000Z,1069
2023-04-16T04:55:18.000Z,1126
2023-04-16T04:56:19.000Z,1187
2023-04-16T04:57:20.000Z,1252
2023-04-16T04:58:21.000Z,1329
2023-04-16T04:59:22.000Z,1403
2023-04-16T05:00:23.000Z,1457
2023-04-16T05:01:23.000Z,1500
2023-04-16T05:02:24.000Z,1528
2023-04-16T05:03:25.000Z,1549
2023-04-16T05:04:26.000Z,1556
2023-04-16T05:05:27.000Z,1571
2023-04-16T05:06:28.000Z,1584
2023-04-16T05:07:29.000Z,1614
2023-04-16T05:08:30.000Z,1658
2023-04-16T05:09:31.000Z,1714
2023-04-16T05:10:32.000Z,1781
2023-04-16T05:11:32.000Z,1848
2023-04-16T05:12:33.000Z,1908
2023-04-16T05:13:34.000Z,1954
2023-04-16T05:14:35.000Z,1973
2023-04-16T05:15:36.000Z,1995
2023-04-16T05:16:37.000Z,2000
2023-04-16T05:17:37.000Z,2020
2023-04-16T05:18:38.000Z,2060
2023-04-16T05:19:39.000Z,2079
2023-04-16T05:20:40.000Z,2129
2023-04-16T05:21:41.000Z,2169
2023-04-16T05:22:42.000Z,2219
2023-04-16T05:23:43.000Z,2281
2023-04-16T05:24:44.000Z,2350
2023-04-16T05:25:45.000Z,2435
2023-04-16T05:26:45.000Z,2581
2023-04-16T05:27:46.000Z,2751
2023-04-16T05:28:47.000Z,2933
2023-04-16T05:29:48.000Z,3096
2023-04-16T05:30:49.000Z,3229
2023-04-16T05:31:50.000Z,3348
2023-04-16T05:32:51.000Z,3409
2023-04-16T05:33:52.000Z,3458
2023-04-16T05:34:52.000Z,3480
2023-04-16T05:35:53.000Z,3492
2023-04-16T05:36:54.000Z,3510
2023-04-16T05:37:55.000Z,3532
2023-04-16T05:38:56.000Z,3555
2023-04-16T05:39:57.000Z,3585
2023-04-16T05:40:58.000Z,3641
2023-04-16T05:41:59.000Z,3667
2023-04-16T05:43:00.000Z,3692
2023-04-16T05:44:01.000Z,3722
2023-04-16T05:45:02.000Z,3744
2023-04-16T05:46:02.000Z,3751
2023-04-16T05:47:03.000Z,3748
2023-04-16T05:48:04.000Z,3742
2023-04-16T05:49:05.000Z,3742
2023-04-16T05:50:06.000Z,3755
2023-04-16T05:51:07.000Z,3777
2023-04-16T05:52:08.000Z,3822
2023-04-16T05:53:09.000Z,3882
2023-04-16T05:54:10.000Z,3948
2023-04-16T05:55:10.000Z,3993
2023-04-16T05:56:11.000Z,4004
2023-04-16T05:57:12.000Z,3976
2023-04-16T05:58:13.000Z,3912
2023-04-16T05:59:14.000Z,3834
2023-04-16T06:00:15.000Z,3752
2023-04-16T06:01:16.000Z,3667
2023-04-16T06:02:17.000Z,3589
2023-04-16T06:03:17.000Z,3523
2023-04-16T06:04:18.000Z,3475
2023-04-16T06:05:19.000Z,3435
2023-04-16T06:06:20.000Z,3415
2023-04-16T06:07:21.000Z,3415
2023-04-16T06:08:22.000Z,3424
2023-04-16T06:09:23.000Z,3456
2023-04-16T06:10:24.000Z,3495
2023-04-16T06:11:25.000Z,3543
2023-04-16T06:12:25.000Z,3602
2023-04-16T06:13:26.000Z,3690
2023-04-16T06:14:27.000Z,3812
2023-04-16T06:15:28.000Z,3973
2023-04-16T06:16:29.000Z,4161
2023-04-16T06:17:30.000Z,4373
2023-04-16T06:18:31.000Z,4589
2023-04-16T06:19:31.000Z,4812
2023-04-16T06:20:32.000Z,5034
2023-04-16T06:21:33.000Z,5251
2023-04-16T06:22:34.000Z,5475
2023-04-16T06:23:35.000Z,5723
2023-04-16T06:24:36.000Z,5926
2023-04-16T06:25:36.000Z,6034
2023-04-16T06:26:37.000Z,6033
2023-04-16T06:27:38.000Z,5946
2023-04-16T06:28:39.000Z,5828
2023-04-16T06:29:40.000Z,5735
2023-04-16T06:30:41.000Z,5723
2023-04-16T06:31:42.000Z,5794
2023-04-16T06:32:42.000Z,5853
2023-04-16T06:33:43.000Z,5912
2023-04-16T06:34:44.000Z,5947
2023-04-16T06:35:45.000Z,5925
2023-04-16T06:36:46.000Z,5862
2023-04-16T06:37:47.000Z,5845
2023-04-16T06:38:48.000Z,5857
2023-04-16T06:39:49.000Z,6041
2023-04-16T06:40:49.000Z,6239
2023-04-16T06:41:50.000Z,6360
2023-04-16T06:42:51.000Z,6461
2023-04-16T06:43:52.000Z,6630
2023-04-16T06:44:53.000Z,6873
2023-04-16T06:45:54.000Z,7045
2023-04-16T06:46:55.000Z,7254
2023-04-16T06:47:56.000Z,7425
2023-04-16T06:48:57.000Z,7475
2023-04-16T06:49:58.000Z,7429
2023-04-16T06:50:58.000Z,7266
2023-04-16T06:52:04.000Z,7081
2023-04-16T06:53:05.000Z,7110
2023-04-16T06:54:06.000Z,7316
2023-04-16T06:55:07.000Z,7622
2023-04-16T06:56:08.000Z,7979
2023-04-16T06:57:09.000Z,8299
2023-04-16T06:58:10.000Z,8527
2023-04-16T06:59:10.000Z,8618
2023-04-16T07:00:11.000Z,8580
2023-04-16T07:01:12.000Z,8443
2023-04-16T07:02:13.000Z,8303
2023-04-16T07:03:14.000Z,8258
2023-04-16T07:04:15.000Z,8351
2023-04-16T07:05:16.000Z,8686
2023-04-16T07:06:17.000Z,9206
2023-04-16T07:07:18.000Z,9695
2023-04-16T07:08:18.000Z,10040
2023-04-16T07:09:19.000Z,10132
2023-04-16T07:10:20.000Z,10148
2023-04-16T07:11:21.000Z,10313
2023-04-16T07:12:22.000Z,10734
2023-04-16T07:13:23.000Z,11262
2023-04-16T07:14:23.000Z,11881
2023-04-16T07:15:24.000Z,12077
2023-04-16T07:16:25.000Z,12221
2023-04-16T07:17:26.000Z,12336
2023-04-16T07:18:32.000Z,12776
2023-04-16T07:19:33.000Z,13569
2023-04-16T07:20:34.000Z,14473
2023-04-16T07:21:35.000Z,15238
2023-04-16T07:22:35.000Z,15557
2023-04-16T07:23:36.000Z,15448
2023-04-16T07:24:37.000Z,15440
2023-04-16T07:25:38.000Z,15522
2023-04-16T07:26:39.000Z,15162
2023-04-16T07:27:39.000Z,14278
2023-04-16T07:28:40.000Z,13409
2023-04-16T07:29:41.000Z,12846
2023-04-16T07:30:42.000Z,12633
2023-04-16T07:31:43.000Z,12472
2023-04-16T07:32:44.000Z,11933
2023-04-16T07:33:44.000Z,11370
2023-04-16T07:34:45.000Z,10830
2023-04-16T07:35:46.000Z,10472
2023-04-16T07:36:47.000Z,10351
2023-04-16T07:37:48.000Z,10246
2023-04-16T07:38:49.000Z,10296
2023-04-16T07:39:49.000Z,10715
2023-04-16T07:40:50.000Z,11413
2023-04-16T07:41:51.000Z,12227
2023-04-16T07:42:52.000Z,13211
2023-04-16T07:43:52.000Z,14103
2023-04-16T07:44:53.000Z,14807
2023-04-16T07:45:54.000Z,15277
2023-04-16T07:46:55.000Z,15423
2023-04-16T07:47:56.000Z,15473
2023-04-16T07:48:56.000Z,15350
2023-04-16T07:49:57.000Z,14917
2023-04-16T07:50:58.000Z,14264
2023-04-16T07:51:59.000Z,13755
2023-04-16T07:53:00.000Z,13434
2023-04-16T07:54:01.000Z,13066
2023-04-16T07:55:01.000Z,12704
2023-04-16T07:56:02.000Z,12478
2023-04-16T07:57:03.000Z,12349
2023-04-16T07:58:04.000Z,12344
2023-04-16T07:59:05.000Z,12310
2023-04-16T08:00:06.000Z,11985
2023-04-16T08:01:06.000Z,11468
2023-04-16T08:02:07.000Z,11217
2023-04-16T08:03:08.000Z,11299
2023-04-16T08:04:09.000Z,11459
2023-04-16T08:05:10.000Z,11638
2023-04-16T08:06:10.000Z,11719
2023-04-16T08:07:11.000Z,11700
2023-04-16T08:08:12.000Z,11809
2023-04-16T08:09:13.000Z,11932
2023-04-16T08:10:14.000Z,12002
2023-04-16T08:11:15.000Z,12100
2023-04-16T08:12:15.000Z,12162
2023-04-16T08:13:16.000Z,12244
2023-04-16T08:14:17.000Z,12328
2023-04-16T08:15:18.000Z,12478
2023-04-16T08:16:19.000Z,12481
2023-04-16T08:17:20.000Z,12175
2023-04-16T08:18:20.000Z,11662
2023-04-16T08:19:21.000Z,10797
2023-04-16T08:20:22.000Z,10263
2023-04-16T08:21:23.000Z,9839
2023-04-16T08:22:24.000Z,9386
2023-04-16T08:23:25.000Z,8974
2023-04-16T08:24:25.000Z,8732
2023-04-16T08:25:26.000Z,8751
2023-04-16T08:26:27.000Z,9094
2023-04-16T08:27:28.000Z,9734
2023-04-16T08:28:29.000Z,10395
2023-04-16T08:29:29.000Z,10765
2023-04-16T08:30:30.000Z,10822
2023-04-16T08:31:31.000Z,10849
2023-04-16T08:32:32.000Z,11206
2023-04-16T08:33:33.000Z,12119
2023-04-16T08:34:33.000Z,13411
2023-04-16T08:35:34.000Z,15183
2023-04-16T08:36:35.000Z,16912
2023-04-16T08:37:36.000Z,17832
2023-04-16T08:38:37.000Z,18344
2023-04-16T08:39:38.000Z,18712
2023-04-16T08:40:38.000Z,18952
2023-04-16T08:41:39.000Z,19040
2023-04-16T08:42:40.000Z,19056
2023-04-16T08:43:41.000Z,18968
2023-04-16T08:44:42.000Z,18904
2023-04-16T08:45:43.000Z,18976
2023-04-16T08:46:43.000Z,19184
2023-04-16T08:47:44.000Z,19616
2023-04-16T08:48:45.000Z,20440
2023-04-16T08:49:46.000Z,21880
2023-04-16T08:50:47.000Z,23872
2023-04-16T08:51:48.000Z,25928
2023-04-16T08:52:48.000Z,27536
2023-04-16T08:53:49.000Z,28488
2023-04-16T08:54:50.000Z,29608
2023-04-16T08:55:51.000Z,30800
2023-04-16T08:56:52.000Z,31944
2023-04-16T08:57:52.000Z,32784
2023-04-16T08:58:53.000Z,33576
2023-04-16T08:59:54.000Z,34616
2023-04-16T09:00:55.000Z,35240
2023-04-16T09:01:55.000Z,35400
2023-04-16T09:02:56.000Z,35720
2023-04-16T09:03:57.000Z,36592
2023-04-16T09:04:58.000Z,37784
2023-04-16T09:05:59.000Z,38432
2023-04-16T09:06:59.000Z,38864
2023-04-16T09:08:00.000Z,38792
2023-04-16T09:09:01.000Z,37768
2023-04-16T09:10:02.000Z,36552
2023-04-16T09:11:03.000Z,35480
2023-04-16T09:12:04.000Z,34592
2023-04-16T09:13:05.000Z,34936
2023-04-16T09:14:05.000Z,35672
2023-04-16T09:15:06.000Z,36320
2023-04-16T09:16:07.000Z,37320
2023-04-16T09:17:08.000Z,39192
2023-04-16T09:18:08.000Z,39600
2023-04-16T09:19:09.000Z,38752
2023-04-16T09:20:10.000Z,38208
2023-04-16T09:21:11.000Z,37328
2023-04-16T09:22:11.000Z,36064
2023-04-16T09:23:12.000Z,35144
2023-04-16T09:24:13.000Z,34736
2023-04-16T09:25:14.000Z,35856
2023-04-16T09:26:14.000Z,36824
2023-04-16T09:27:15.000Z,36312
2023-04-16T09:28:16.000Z,34624
2023-04-16T09:29:17.000Z,33568
2023-04-16T09:30:18.000Z,33104
2023-04-16T09:31:18.000Z,32464
2023-04-16T09:32:19.000Z,31776
2023-04-16T09:33:20.000Z,31720
2023-04-16T09:34:21.000Z,32104
2023-04-16T09:35:21.000Z,33000
2023-04-16T09:36:22.000Z,34696
2023-04-16T09:37:23.000Z,37008
2023-04-16T09:38:24.000Z,39512
2023-04-16T09:39:25.000Z,41800
2023-04-16T09:40:25.000Z,42984
2023-04-16T09:41:26.000Z,45536
2023-04-16T09:42:27.000Z,46680
2023-04-16T09:43:28.000Z,46672
2023-04-16T09:44:28.000Z,47192
2023-04-16T09:45:29.000Z,47792
2023-04-16T09:46:30.000Z,45696
2023-04-16T09:47:31.000Z,40880
2023-04-16T09:48:32.000Z,38464
2023-04-16T09:49:32.000Z,39584
2023-04-16T09:50:33.000Z,43136
2023-04-16T09:51:34.000Z,45904
2023-04-16T09:52:35.000Z,47168
2023-04-16T09:53:35.000Z,46592
2023-04-16T09:54:36.000Z,44136
2023-04-16T09:55:37.000Z,39720
2023-04-16T09:56:38.000Z,34240
2023-04-16T09:57:38.000Z,29992
2023-04-16T09:58:39.000Z,27776
2023-04-16T09:59:40.000Z,26144
2023-04-16T10:00:41.000Z,26408
2023-04-16T10:01:41.000Z,26080
2023-04-16T10:02:42.000Z,25976
2023-04-16T10:03:43.000Z,26360
2023-04-16T10:04:44.000Z,25640
2023-04-16T10:05:44.000Z,24024
2023-04-16T10:06:45.000Z,21920
2023-04-16T10:07:46.000Z,19888
2023-04-16T10:08:47.000Z,17048
2023-04-16T10:09:47.000Z,14481
2023-04-16T10:10:48.000Z,13387
2023-04-16T10:11:49.000Z,13060
2023-04-16T10:12:50.000Z,13739
2023-04-16T10:13:51.000Z,14794
2023-04-16T10:14:51.000Z,16264
2023-04-16T10:15:52.000Z,17160
2023-04-16T10:16:53.000Z,17528
2023-04-16T10:17:54.000Z,17672
2023-04-16T10:18:54.000Z,17728
2023-04-16T10:19:55.000Z,17496
2023-04-16T10:20:56.000Z,16696
2023-04-16T10:21:57.000Z,16880
2023-04-16T10:22:57.000Z,18184
2023-04-16T10:23:58.000Z,19552
2023-04-16T10:24:59.000Z,20688
2023-04-16T10:26:00.000Z,21104
2023-04-16T10:27:00.000Z,21128
2023-04-16T10:28:01.000Z,20480
2023-04-16T10:29:02.000Z,20216
2023-04-16T10:30:03.000Z,21008
2023-04-16T10:31:03.000Z,20368
2023-04-16T10:32:04.000Z,18352
2023-04-16T10:33:05.000Z,18232
2023-04-16T10:34:06.000Z,20000
2023-04-16T10:35:06.000Z,21040
2023-04-16T10:36:07.000Z,22032
2023-04-16T10:37:08.000Z,22024
2023-04-16T10:38:09.000Z,21384
2023-04-16T10:39:09.000Z,20624
2023-04-16T10:40:10.000Z,20568
2023-04-16T10:41:11.000Z,21344
2023-04-16T10:42:12.000Z,20864
2023-04-16T10:43:13.000Z,20224
2023-04-16T10:44:13.000Z,20184
2023-04-16T10:45:14.000Z,20304
2023-04-16T10:46:15.000Z,20648
2023-04-16T10:47:16.000Z,21448
2023-04-16T10:48:16.000Z,20888
2023-04-16T10:49:17.000Z,18408
2023-04-16T10:50:23.000Z,18384
2023-04-16T10:51:24.000Z,19832
2023-04-16T10:52:24.000Z,20840
2023-04-16T10:53:25.000Z,21232
2023-04-16T10:54:26.000Z,21584
2023-04-16T10:55:27.000Z,21456
2023-04-16T10:56:27.000Z,21216
2023-04-16T10:57:28.000Z,20632
2023-04-16T10:58:29.000Z,19880
2023-04-16T10:59:30.000Z,19408
2023-04-16T11:00:31.000Z,18776
2023-04-16T11:01:31.000Z,17880
2023-04-16T11:02:32.000Z,16936
2023-04-16T11:03:38.000Z,16240
2023-04-16T11:04:44.000Z,15549
2023-04-16T11:05:45.000Z,14967
2023-04-16T11:06:45.000Z,15331
2023-04-16T11:07:46.000Z,16296
2023-04-16T11:08:47.000Z,17272
2023-04-16T11:09:48.000Z,18296
2023-04-16T11:10:48.000Z,18960
2023-04-16T11:11:49.000Z,19736
2023-04-16T11:12:50.000Z,20320
2023-04-16T11:13:51.000Z,20920
2023-04-16T11:14:51.000Z,21504
2023-04-16T11:15:52.000Z,22072
2023-04-16T11:16:53.000Z,22856
2023-04-16T11:17:54.000Z,23456
2023-04-16T11:18:54.000Z,23472
2023-04-16T11:19:55.000Z,23800
2023-04-16T11:20:56.000Z,24376
2023-04-16T11:21:57.000Z,24680
2023-04-16T11:22:57.000Z,24864
2023-04-16T11:23:58.000Z,24880
2023-04-16T11:24:59.000Z,23352
2023-04-16T11:26:00.000Z,21680
2023-04-16T11:27:00.000Z,20496
2023-04-16T11:28:01.000Z,19168
2023-04-16T11:29:02.000Z,18968
2023-04-16T11:30:03.000Z,19632
2023-04-16T11:31:03.000Z,20328
2023-04-16T11:32:04.000Z,21024
2023-04-16T11:33:05.000Z,21368
2023-04-16T11:34:06.000Z,21712
2023-04-16T11:35:07.000Z,22368
2023-04-16T11:36:07.000Z,23264
2023-04-16T11:37:08.000Z,24448
2023-04-16T11:38:09.000Z,25136
2023-04-16T11:39:10.000Z,24736
2023-04-16T11:40:11.000Z,23768
2023-04-16T11:41:11.000Z,22712
2023-04-16T11:42:12.000Z,21496
2023-04-16T11:43:13.000Z,19872
2023-04-16T11:44:14.000Z,17624
2023-04-16T11:45:14.000Z,15105
2023-04-16T11:46:15.000Z,13349
2023-04-16T11:47:16.000Z,12144
2023-04-16T11:48:17.000Z,11398
2023-04-16T11:49:18.000Z,11026
2023-04-16T11:50:18.000Z,10816
2023-04-16T11:51:19.000Z,10493
2023-04-16T11:52:20.000Z,10057
2023-04-16T11:53:21.000Z,9614
2023-04-16T11:54:21.000Z,9054
2023-04-16T11:55:22.000Z,8212
2023-04-16T11:56:23.000Z,7436
2023-04-16T11:57:24.000Z,7017
2023-04-16T11:58:24.000Z,6899
2023-04-16T11:59:25.000Z,7027
2023-04-16T12:00:26.000Z,7126
2023-04-16T12:01:27.000Z,7054
2023-04-16T12:02:27.000Z,6837
2023-04-16T12:03:28.000Z,6487
2023-04-16T12:04:29.000Z,6174
2023-04-16T12:05:30.000Z,6075
2023-04-16T12:06:30.000Z,6007
2023-04-16T12:07:31.000Z,5946
2023-04-16T12:08:37.000Z,5818
2023-04-16T12:09:38.000Z,5579
2023-04-16T12:10:38.000Z,5337
2023-04-16T12:11:39.000Z,5150
2023-04-16T12:12:40.000Z,4953
2023-04-16T12:13:41.000Z,4874
2023-04-16T12:14:41.000Z,4914
2023-04-16T12:15:42.000Z,4746
2023-04-16T12:16:43.000Z,4413
2023-04-16T12:17:44.000Z,4147
2023-04-16T12:18:44.000Z,4045
2023-04-16T12:19:45.000Z,4018
2023-04-16T12:20:46.000Z,4021
2023-04-16T12:21:47.000Z,4013
2023-04-16T12:22:47.000Z,3908
2023-04-16T12:23:48.000Z,3619
2023-04-16T12:24:49.000Z,3417
2023-04-16T12:25:50.000Z,3514
2023-04-16T12:26:50.000Z,4628
2023-04-16T12:27:51.000Z,5474
2023-04-16T12:28:52.000Z,6758
2023-04-16T12:29:53.000Z,7266
2023-04-16T12:30:54.000Z,7716
2023-04-16T12:31:55.000Z,8340
2023-04-16T12:32:55.000Z,9352
2023-04-16T12:33:56.000Z,9866
2023-04-16T12:34:57.000Z,10666
2023-04-16T12:35:58.000Z,11071
2023-04-16T12:36:59.000Z,12363
2023-04-16T12:37:59.000Z,12404
2023-04-16T12:39:00.000Z,12719
2023-04-16T12:40:01.000Z,13731
2023-04-16T12:41:02.000Z,14320
2023-04-16T12:42:02.000Z,14928
2023-04-16T12:43:03.000Z,16352
2023-04-16T12:44:04.000Z,15250
2023-04-16T12:45:05.000Z,15052
2023-04-16T12:46:05.000Z,15467
2023-04-16T12:47:06.000Z,16336
2023-04-16T12:48:07.000Z,16448
2023-04-16T12:49:08.000Z,15920
2023-04-16T12:50:09.000Z,15198
2023-04-16T12:51:09.000Z,13990
2023-04-16T12:52:10.000Z,12113
2023-04-16T12:53:11.000Z,11357
2023-04-16T12:54:12.000Z,10668
2023-04-16T12:55:12.000Z,8650
2023-04-16T12:56:13.000Z,9121
2023-04-16T12:57:14.000Z,11888
2023-04-16T12:58:19.000Z,13931
2023-04-16T12:59:20.000Z,14899
2023-04-16T13:00:21.000Z,14407
2023-04-16T13:01:22.000Z,14193
2023-04-16T13:02:23.000Z,14187
2023-04-16T13:03:23.000Z,14853
2023-04-16T13:04:24.000Z,16216
2023-04-16T13:05:25.000Z,17616
2023-04-16T13:06:26.000Z,18400
2023-04-16T13:07:27.000Z,20024
2023-04-16T13:08:28.000Z,20248
2023-04-16T13:09:28.000Z,20368
2023-04-16T13:10:29.000Z,19952
2023-04-16T13:11:30.000Z,19688
2023-04-16T13:12:31.000Z,19736
2023-04-16T13:13:37.000Z,19104
2023-04-16T13:14:37.000Z,17808
2023-04-16T13:15:38.000Z,16360
2023-04-16T13:16:39.000Z,15630
2023-04-16T13:17:40.000Z,15920
2023-04-16T13:18:40.000Z,16864
2023-04-16T13:19:41.000Z,18072
2023-04-16T13:20:42.000Z,19224
2023-04-16T13:21:43.000Z,20016
2023-04-16T13:22:43.000Z,21480
2023-04-16T13:23:44.000Z,23152
2023-04-16T13:24:45.000Z,21824
2023-04-16T13:25:46.000Z,23080
2023-04-16T13:26:47.000Z,22696
2023-04-16T13:27:47.000Z,23104
2023-04-16T13:28:48.000Z,25688
2023-04-16T13:29:49.000Z,24632
2023-04-16T13:30:50.000Z,20488
2023-04-16T13:31:50.000Z,19184
2023-04-16T13:32:51.000Z,20720
2023-04-16T13:33:52.000Z,21632
2023-04-16T13:34:52.000Z,21624
2023-04-16T13:35:53.000Z,17232
2023-04-16T13:36:54.000Z,12027
2023-04-16T13:37:55.000Z,10985
2023-04-16T13:38:55.000Z,10947
2023-04-16T13:39:56.000Z,13193
2023-04-16T13:40:57.000Z,13443
2023-04-16T13:41:58.000Z,14707
2023-04-16T13:42:58.000Z,16632
2023-04-16T13:43:59.000Z,16632
2023-04-16T13:45:00.000Z,15728